M I D A S
Marine Information and Data Acquisition System
Tripno 886 of the Zeeleeuw from 2005-04-28 06:45:36 to 2005-04-28 15:38:20
Back to CruiseResearch ActivitiesStationsMapUnderway DataData graphs

EquipmentUnitsComment
TimeDGPSUTC
LatitudeDGPSDM.mWGS84
LongitudeDGPSDM.mWGS84
TemperatureSBE03/SBE38deg celciusITS90
ConductivitySBE21S/mITS90
SalinitySBE21 Practical Salinity Units
ChlorophylAChelsea fluorimeterg/lCalibrated in Aceton
Missing or incorrect values are displayed as -999
Sea surface data collected by the RV Zeeleeuw from 2005-04-28 06:44:08 to 2005-04-28 15:48:48
Time Latitude Longitude Temperature Conductivity Salinity ChlorophylA
2005-04-28 06:45:13 51°13.597 2°56.108 13.7076 3.92935 30.229774 10.646238
2005-04-28 06:46:13 51°13.597 2°56.104 13.0605 3.467202 28.451262 6.5674
2005-04-28 06:47:14 51°13.61 2°56.052 11.3371 3.333127 28.180284 10.410272
2005-04-28 06:48:14 51°13.635 2°55.966 10.9789 3.332506 28.959873 19.680358
2005-04-28 06:49:14 51°13.677 2°55.858 10.8048 3.343884 29.302058 22.208563
2005-04-28 06:50:14 51°13.719 2°55.755 10.7796 3.313447 29.119926 17.657794
2005-04-28 06:51:13 51°13.732 2°55.737 10.8036 3.3026 29.038426 17.253281
2005-04-28 06:52:14 51°13.728 2°55.708 10.8147 3.273848 28.735488 16.17458
2005-04-28 06:53:14 51°13.774 2°55.686 10.8343 3.246046 28.459958 16.208289
2005-04-28 06:54:13 51°13.861 2°55.619 10.8432 3.210768 28.096558 17.691503
2005-04-28 06:55:13 51°13.978 2°55.531 10.793 3.281431 28.807287 18.230853
2005-04-28 06:56:13 51°14.103 2°55.438 10.7853 3.362845 29.643878 19.983742
2005-04-28 06:57:13 51°14.249 2°55.287 10.756 3.349047 29.502052 18.264563
2005-04-28 06:58:12 51°14.361 2°55.052 10.7606 3.358948 29.624575 20.084871
2005-04-28 06:59:13 51°14.523 2°54.825 10.708 3.381488 29.824113 21.062443
2005-04-28 07:00:13 51°14.728 2°54.71 10.6548 3.543614 31.492453 19.848905
2005-04-28 07:01:13 51°14.946 2°54.649 10.6229 3.602301 32.113283 16.511674
2005-04-28 07:02:13 51°15.158 2°54.576 10.6137 3.612101 32.241542 17.219571
2005-04-28 07:03:13 51°15.374 2°54.51 10.5977 3.608307 32.201784 17.725212
2005-04-28 07:04:13 51°15.588 2°54.399 10.609 3.624323 32.372814 14.725076
2005-04-28 07:05:13 51°15.806 2°54.285 10.5899 3.627063 32.398598 13.91605
2005-04-28 07:06:13 51°15.995 2°54.191 10.5638 3.612206 32.275927 12.365418
2005-04-28 07:07:13 51°16.112 2°54.214 10.5516 3.611996 32.287332 14.421691
2005-04-28 07:08:13 51°16.204 2°54.255 10.5504 3.607992 32.264593 12.500255
2005-04-28 07:09:12 51°16.242 2°54.276 10.5406 3.609889 32.284159 11.320426
2005-04-28 07:10:13 51°16.244 2°54.256 10.5417 3.607781 32.267474 14.893623
2005-04-28 07:11:13 51°16.246 2°54.237 10.5356 3.608098 32.272749 15.399264
2005-04-28 07:12:12 51°16.247 2°54.219 10.5431 3.611259 32.304181 15.770067
2005-04-28 07:13:13 51°16.249 2°54.199 10.5406 3.612312 32.310388 16.073452
2005-04-28 07:14:13 51°16.252 2°54.18 10.5421 3.608519 32.274096 16.275708
2005-04-28 07:15:13 51°16.254 2°54.161 10.5405 3.61463 32.336288 16.680221
2005-04-28 07:16:13 51°16.256 2°54.14 10.5444 3.614841 32.338384 17.657794
2005-04-28 07:17:13 51°16.259 2°54.12 10.547 3.606201 32.252471 14.286853
2005-04-28 07:18:13 51°16.261 2°54.099 10.5437 3.605779 32.248281 15.06217
2005-04-28 07:19:12 51°16.264 2°54.079 10.5463 3.599984 32.190676 14.826204
2005-04-28 07:20:13 51°16.267 2°54.058 10.5506 3.608624 32.274432 15.264426
2005-04-28 07:21:13 51°16.27 2°54.038 10.5416 3.602513 32.216521 17.28699
2005-04-28 07:22:13 51°16.272 2°54.017 10.5416 3.601881 32.211656 15.938614
2005-04-28 07:23:13 51°16.275 2°54.001 10.5439 3.597982 32.172198 14.859913
2005-04-28 07:24:13 51°16.329 2°54.023 10.537 3.607044 32.263694 14.590238
2005-04-28 07:25:13 51°16.451 2°53.875 10.5392 3.6101 32.302619 16.815059
2005-04-28 07:26:13 51°16.606 2°53.609 10.5345 3.595243 32.150639 16.275708
2005-04-28 07:27:13 51°16.767 2°53.337 10.5207 3.599563 32.199965 16.579093
2005-04-28 07:28:13 51°16.923 2°53.076 10.5014 3.599142 32.210683 18.331982
2005-04-28 07:29:12 51°17.077 2°52.821 10.4792 3.598405 32.222531 15.904905
2005-04-28 07:30:13 51°17.236 2°52.537 10.4982 3.609784 32.33939 17.927469
2005-04-28 07:31:13 51°17.405 2°52.28 10.5163 3.614209 32.369895 17.994888
2005-04-28 07:32:13 51°17.58 2°52.027 10.4869 3.636021 32.579266 15.63523
2005-04-28 07:33:13 51°17.754 2°51.781 10.4416 3.652986 32.771498 14.657657
2005-04-28 07:34:13 51°17.927 2°51.533 10.3682 3.646032 32.766494 14.219435
2005-04-28 07:35:13 51°18.102 2°51.28 10.2909 3.635707 32.738636 17.792631
2005-04-28 07:36:13 51°18.275 2°51.057 10.2786 3.622114 32.640928 15.837486
2005-04-28 07:37:13 51°18.405 2°51.015 10.2729 3.646982 32.889511 15.129589
2005-04-28 07:38:13 51°18.472 2°51.042 10.2779 3.650565 32.931303 15.904905
2005-04-28 07:39:13 51°18.48 2°51.021 10.2662 3.656044 32.989956 16.17458
2005-04-28 07:40:13 51°18.485 2°51 10.2644 3.65773 33.018619 14.691366
2005-04-28 07:41:12 51°18.491 2°50.979 10.2588 3.658362 33.022766 15.736358
2005-04-28 07:42:13 51°18.497 2°50.959 10.2572 3.657414 33.01838 15.197007
2005-04-28 07:43:13 51°18.503 2°50.94 10.2674 3.659205 33.034168 16.107161
2005-04-28 07:44:13 51°18.509 2°50.922 10.2777 3.659522 33.032203 16.916187
2005-04-28 07:45:13 51°18.514 2°50.908 10.2733 3.6591 33.0221 14.623947
2005-04-28 07:46:13 51°18.52 2°50.902 10.2772 3.658678 33.018602 13.444118
2005-04-28 07:47:12 51°18.526 2°50.902 10.281 3.658152 33.012579 15.298136
2005-04-28 07:48:13 51°18.535 2°50.91 10.2807 3.653726 32.965223 15.500392
2005-04-28 07:49:13 51°18.542 2°50.921 10.279 3.656992 32.998009 15.197007
2005-04-28 07:50:13 51°18.548 2°50.931 10.2776 3.654885 32.978321 15.972324
2005-04-28 07:51:13 51°18.553 2°50.94 10.2732 3.652567 32.956518 14.691366
2005-04-28 07:52:13 51°18.558 2°50.949 10.2744 3.650565 32.937889 17.28699
2005-04-28 07:53:13 51°18.561 2°50.955 10.2702 3.648984 32.922757 16.74764
2005-04-28 07:54:12 51°18.565 2°50.953 10.2692 3.647825 32.911125 16.680221
2005-04-28 07:55:13 51°18.568 2°50.944 10.2683 3.646982 32.902666 16.17458
2005-04-28 07:56:13 51°18.571 2°50.931 10.2686 3.643505 32.872156 15.163298
2005-04-28 07:57:13 51°18.57 2°50.915 10.2712 3.643926 32.875655 17.624084
2005-04-28 07:58:13 51°18.574 2°50.894 10.2704 3.645296 32.887209 16.511674
2005-04-28 07:59:13 51°18.58 2°50.937 10.2701 3.644664 32.882327 18.163435
2005-04-28 08:00:13 51°18.633 2°51.201 10.2686 3.644348 32.879154 20.995024
2005-04-28 08:01:12 51°18.695 2°51.51 10.2507 3.63655 32.805296 18.466819
2005-04-28 08:02:12 51°18.765 2°51.819 10.248 3.626014 32.71342 18.702785
2005-04-28 08:03:12 51°18.835 2°52.127 10.2348 3.612 32.573594 19.680358
2005-04-28 08:04:13 51°18.904 2°52.44 10.2173 3.601463 32.478082 19.444392
2005-04-28 08:05:13 51°18.972 2°52.745 10.235 3.594298 32.415638 22.680494
2005-04-28 08:06:13 51°19.039 2°53.056 10.2225 3.586817 32.336341 21.972597
2005-04-28 08:07:12 51°19.105 2°53.361 10.2134 3.580601 32.282676 22.747913
2005-04-28 08:08:13 51°19.167 2°53.676 10.2412 3.565324 32.136796 20.725349
2005-04-28 08:09:13 51°19.228 2°53.983 10.2699 3.538984 31.839845 23.52323
2005-04-28 08:10:13 51°19.289 2°54.291 10.2893 3.542987 31.858618 20.556802
2005-04-28 08:11:13 51°19.354 2°54.597 10.2592 3.543092 31.861793 22.141144
2005-04-28 08:12:13 51°19.432 2°54.902 10.2458 3.550678 31.948935 22.646785
2005-04-28 08:13:13 51°19.513 2°55.205 10.2455 3.561847 32.072002 24.534512
2005-04-28 08:14:13 51°19.582 2°55.515 10.2541 3.569959 32.146036 27.264973
2005-04-28 08:15:13 51°19.649 2°55.823 10.2565 3.569959 32.14675 25.882888
2005-04-28 08:16:13 51°19.716 2°56.138 10.2829 3.5688 32.133725 26.152563
2005-04-28 08:17:13 51°19.788 2°56.448 10.3656 3.575438 32.165122 22.95017
2005-04-28 08:18:13 51°19.859 2°56.752 10.3766 3.566692 32.014479 21.129862
2005-04-28 08:19:13 51°19.926 2°57.057 10.4128 3.481882 31.154356 28.00658
2005-04-28 08:20:12 51°19.994 2°57.35 10.4123 3.45723 30.891911 26.354819
2005-04-28 08:21:12 51°20.061 2°57.646 10.4347 3.442693 30.738995 27.062717
2005-04-28 08:22:12 51°20.127 2°57.944 10.451 3.427945 30.582151 26.489657
2005-04-28 08:23:12 51°20.192 2°58.242 10.4537 3.416147 30.449297 26.32111
2005-04-28 08:24:12 51°20.257 2°58.538 10.4596 3.40435 30.330033 26.995298
2005-04-28 08:25:13 51°20.322 2°58.839 10.4653 3.399083 30.276674 29.287537
2005-04-28 08:26:13 51°20.387 2°59.135 10.4713 3.392131 30.200695 25.545794
2005-04-28 08:27:12 51°20.45 2°59.426 10.4642 3.385284 30.131797 29.456084
2005-04-28 08:28:13 51°20.513 2°59.724 10.466 3.379596 30.077672 24.467093
2005-04-28 08:29:13 51°20.579 3°0.014 10.4522 3.368115 29.971052 27.568358
2005-04-28 08:30:12 51°20.64 3°0.299 10.4354 3.354844 29.850744 24.63564
2005-04-28 08:31:13 51°20.704 3°0.591 10.4156 3.349157 29.807173 25.478375
2005-04-28 08:32:13 51°20.769 3°0.882 10.4005 3.343785 29.770645 23.118717
2005-04-28 08:33:13 51°20.83 3°1.171 10.3868 3.335886 29.702579 24.770477
2005-04-28 08:34:13 51°20.891 3°1.456 10.3633 3.329461 29.651009 24.332255
2005-04-28 08:35:13 51°20.955 3°1.747 10.3528 3.325775 29.632995 25.984016
2005-04-28 08:36:13 51°21.016 3°2.037 10.3278 3.326934 29.654932 22.579366
2005-04-28 08:37:13 51°21.079 3°2.322 10.2911 3.322616 29.63789 22.444529
2005-04-28 08:38:14 51°21.142 3°2.613 10.2913 3.316929 29.602694 22.613076
2005-04-28 08:39:13 51°21.204 3°2.896 10.2593 3.307661 29.514364 23.219845
2005-04-28 08:40:13 51°21.265 3°3.183 10.2487 3.306819 29.525686 23.961452
2005-04-28 08:41:13 51°21.328 3°3.475 10.2423 3.30229 29.495311 23.253554
2005-04-28 08:42:12 51°21.389 3°3.757 10.2496 3.301553 29.488018 21.837759
2005-04-28 08:43:13 51°21.453 3°4.048 10.245 3.296076 29.428625 24.433383
2005-04-28 08:44:13 51°21.51 3°4.332 10.2469 3.295444 29.422377 23.186136
2005-04-28 08:45:13 51°21.572 3°4.62 10.2393 3.297445 29.447393 24.736768
2005-04-28 08:46:13 51°21.63 3°4.905 10.2402 3.296498 29.441289 23.927742
2005-04-28 08:47:13 51°21.685 3°5.193 10.2588 3.296497 29.431483 23.590648
2005-04-28 08:48:13 51°21.739 3°5.48 10.2227 3.296708 29.435526 21.972597
2005-04-28 08:49:12 51°21.795 3°5.763 10.2047 3.303344 29.524747 21.770341
2005-04-28 08:50:13 51°21.855 3°6.058 10.2091 3.30208 29.518798 22.545657
2005-04-28 08:51:13 51°21.902 3°6.361 10.1885 3.305029 29.557853 22.006306
2005-04-28 08:52:12 51°21.946 3°6.66 10.1807 3.30366 29.552179 24.129999
2005-04-28 08:53:13 51°21.993 3°6.968 10.1683 3.295761 29.483777 26.354819
2005-04-28 08:54:12 51°22.038 3°7.264 10.1724 3.299026 29.52138 27.568358
2005-04-28 08:55:13 51°22.084 3°7.568 10.1671 3.292286 29.453936 25.849178
2005-04-28 08:56:13 51°22.106 3°7.869 10.1617 3.293444 29.47263 26.927879
2005-04-28 08:57:12 51°22.129 3°8.174 10.1528 3.294919 29.489869 25.276118
2005-04-28 08:58:13 51°22.153 3°8.484 10.1425 3.295972 29.50885 26.793042
2005-04-28 08:59:14 51°22.178 3°8.794 10.1374 3.303871 29.595091 26.658204
2005-04-28 09:00:14 51°22.206 3°9.096 10.1547 3.303555 29.588001 25.410956
2005-04-28 09:01:13 51°22.239 3°9.392 10.1582 3.303871 29.578615 23.388392
2005-04-28 09:02:13 51°22.277 3°9.694 10.1679 3.295129 29.48736 23.826614
2005-04-28 09:03:12 51°22.314 3°9.994 10.1797 3.291232 29.441537 23.48952
2005-04-28 09:04:13 51°22.344 3°10.302 10.1862 3.296919 29.49066 23.691777
2005-04-28 09:05:13 51°22.379 3°10.611 10.1898 3.283755 29.356372 25.073862
2005-04-28 09:06:12 51°22.414 3°10.918 10.1919 3.291548 29.429602 24.939024
2005-04-28 09:07:12 51°22.431 3°11.228 10.1934 3.289231 29.404047 24.467093
2005-04-28 09:08:13 51°22.444 3°11.543 10.1953 3.288283 29.394664 24.231127
2005-04-28 09:09:13 51°22.467 3°11.853 10.1964 3.287757 29.389452 23.52323
2005-04-28 09:10:14 51°22.495 3°12.167 10.2054 3.287967 29.388268 23.826614
2005-04-28 09:11:13 51°22.525 3°12.475 10.2156 3.286809 29.368966 26.354819
2005-04-28 09:12:14 51°22.554 3°12.789 10.2315 3.284808 29.340689 24.804187
2005-04-28 09:13:13 51°22.575 3°13.015 10.2397 3.284176 29.32336 24.871606
2005-04-28 09:14:13 51°22.578 3°13.14 10.2528 3.282385 29.300454 29.186409
2005-04-28 09:15:14 51°22.598 3°13.189 10.2682 3.28228 29.289005 26.961589
2005-04-28 09:16:13 51°22.611 3°13.193 10.2715 3.282911 29.282246 27.568358
2005-04-28 09:17:13 51°22.62 3°13.186 10.2775 3.283438 29.282898 26.388529
2005-04-28 09:18:13 51°22.626 3°13.172 10.285 3.283227 29.276921 28.175127
2005-04-28 09:19:13 51°22.632 3°13.151 10.298 3.282701 29.266528 27.602067
2005-04-28 09:20:13 51°22.636 3°13.127 10.2908 3.282806 29.263025 27.366101
2005-04-28 09:21:13 51°22.654 3°13.143 10.2918 3.28249 29.260556 23.759195
2005-04-28 09:22:13 51°22.728 3°13.291 10.2844 3.283543 29.265758 28.208836
2005-04-28 09:23:13 51°22.843 3°13.503 10.2449 3.289968 29.347385 27.332392
2005-04-28 09:24:12 51°22.993 3°13.658 10.2247 3.295234 29.422254 27.635777
2005-04-28 09:25:13 51°23.182 3°13.657 10.217 3.298394 29.477719 26.86046
2005-04-28 09:26:13 51°23.378 3°13.599 10.1882 3.303765 29.530886 29.388665
2005-04-28 09:27:13 51°23.568 3°13.523 10.1726 3.303344 29.545762 34.1754
2005-04-28 09:28:13 51°23.763 3°13.451 10.1651 3.305345 29.581379 39.029554
2005-04-28 09:29:13 51°23.956 3°13.38 10.1657 3.302607 29.560818 41.389212
2005-04-28 09:30:13 51°24.163 3°13.323 10.1685 3.300711 29.53808 33.568631
2005-04-28 09:31:14 51°24.382 3°13.332 10.131 3.306293 29.610548 32.287674
2005-04-28 09:32:13 51°24.58 3°13.418 10.1231 3.317563 29.739584 27.905452
2005-04-28 09:33:13 51°24.731 3°13.625 10.1279 3.307557 29.640912 26.624494
2005-04-28 09:34:14 51°24.854 3°13.875 10.1291 3.305135 29.610929 25.242409
2005-04-28 09:35:13 51°24.967 3°14.138 10.125 3.307978 29.639808 24.028871
2005-04-28 09:36:12 51°25.061 3°14.422 10.101 3.316931 29.743254 21.298409
2005-04-28 09:37:13 51°25.143 3°14.724 10.0825 3.325883 29.851503 20.893896
2005-04-28 09:38:13 51°25.221 3°15.029 10.096 3.328095 29.876831 22.680494
2005-04-28 09:39:13 51°25.294 3°15.336 10.1004 3.332835 29.905286 20.051161
2005-04-28 09:40:12 51°25.367 3°15.639 10.1093 3.34421 30.028448 22.174853
2005-04-28 09:41:13 51°25.44 3°15.942 10.1376 3.33947 29.967253 25.444665
2005-04-28 09:42:13 51°25.508 3°16.242 10.1371 3.327357 29.820917 23.961452
2005-04-28 09:43:13 51°25.57 3°16.541 10.1356 3.323461 29.785545 27.130136
2005-04-28 09:44:13 51°25.662 3°16.824 10.1552 3.317878 29.731455 28.984153
2005-04-28 09:45:13 51°25.743 3°17.078 10.1606 3.318826 29.736889 27.736905
2005-04-28 09:46:14 51°25.786 3°17.247 10.1438 3.320933 29.751833 28.040289
2005-04-28 09:47:13 51°25.827 3°17.376 10.1596 3.322302 29.772053 26.927879
2005-04-28 09:48:12 51°25.857 3°17.494 10.1591 3.322407 29.759838 24.163708
2005-04-28 09:49:12 51°25.864 3°17.526 10.1674 3.320511 29.74169 24.972734
2005-04-28 09:50:13 51°25.865 3°17.543 10.1821 3.320195 29.727963 25.2087
2005-04-28 09:51:14 51°25.864 3°17.557 10.1888 3.318931 29.707493 25.512084
2005-04-28 09:52:12 51°25.862 3°17.565 10.1942 3.319458 29.705444 25.410956
2005-04-28 09:53:13 51°25.859 3°17.569 10.1954 3.319774 29.707254 23.927742
2005-04-28 09:54:13 51°25.855 3°17.604 10.2025 3.319247 29.700052 25.040153
2005-04-28 09:55:13 51°25.776 3°17.701 10.2031 3.318194 29.677071 24.028871
2005-04-28 09:56:13 51°25.665 3°17.571 10.2159 3.31356 29.630506 25.040153
2005-04-28 09:57:13 51°25.637 3°17.25 10.2046 3.304502 29.545409 25.276118
2005-04-28 09:58:13 51°25.61 3°16.89 10.1845 3.307346 29.572254 23.051298
2005-04-28 09:59:13 51°25.572 3°16.527 10.1672 3.317773 29.69865 14.657657
2005-04-28 10:00:13 51°25.563 3°16.17 10.1562 3.324303 29.777325 15.904905
2005-04-28 10:01:13 51°25.528 3°15.815 10.1551 3.333361 29.867226 15.432973
2005-04-28 10:02:13 51°25.502 3°15.463 10.1639 3.337574 29.916381 15.534101
2005-04-28 10:03:13 51°25.477 3°15.098 10.1601 3.340523 29.935004 15.972324
2005-04-28 10:04:13 51°25.44 3°14.735 10.1747 3.342208 29.95574 15.197007
2005-04-28 10:05:12 51°25.388 3°14.375 10.1537 3.347264 30.003282 14.893623
2005-04-28 10:06:13 51°25.321 3°14.005 10.1339 3.349897 30.042149 15.298136
2005-04-28 10:07:13 51°25.252 3°13.633 10.1355 3.35095 30.063333 15.60152
2005-04-28 10:08:13 51°25.184 3°13.265 10.1093 3.35232 30.086334 15.668939
2005-04-28 10:09:13 51°25.115 3°12.901 10.0729 3.34263 30.006034 14.657657
2005-04-28 10:10:13 51°25.036 3°12.543 10.0634 3.356955 30.176842 13.3767
2005-04-28 10:11:14 51°24.955 3°12.184 10.0631 3.354427 30.161763 12.837349
2005-04-28 10:12:13 51°24.873 3°11.83 10.0889 3.347475 30.086451 12.331708
2005-04-28 10:13:13 51°24.8 3°11.469 10.095 3.344315 30.034188 12.466546
2005-04-28 10:14:13 51°24.769 3°11.098 10.0903 3.337153 29.960918 13.680084
2005-04-28 10:15:13 51°24.792 3°10.728 10.1244 3.33136 29.905969 13.174443
2005-04-28 10:16:13 51°24.806 3°10.358 10.1388 3.336731 29.929346 12.871059
2005-04-28 10:17:13 51°24.817 3°9.991 10.1639 3.337047 29.919148 13.511537
2005-04-28 10:18:13 51°24.834 3°9.63 10.1539 3.336731 29.902019 13.174443
2005-04-28 10:19:13 51°24.87 3°9.28 10.1355 3.338416 29.926749 14.623947
2005-04-28 10:20:14 51°24.884 3°8.924 10.1299 3.341576 29.976166 14.725076
2005-04-28 10:21:14 51°24.927 3°8.58 10.1288 3.343577 29.992048 16.006033
2005-04-28 10:22:13 51°24.942 3°8.233 10.148 3.342103 29.980733 16.579093
2005-04-28 10:23:13 51°24.988 3°7.89 10.14 3.342629 29.967932 16.17458
2005-04-28 10:24:13 51°25.126 3°7.658 10.1338 3.340944 29.949857 16.646512
2005-04-28 10:25:14 51°25.317 3°7.564 10.1121 3.340944 29.965877 16.17458
2005-04-28 10:26:13 51°25.51 3°7.473 10.104 3.341892 29.994686 14.084597
2005-04-28 10:27:13 51°25.711 3°7.458 10.1023 3.338206 29.961367 13.91605
2005-04-28 10:28:13 51°25.889 3°7.598 10.0687 3.337469 29.963393 13.983469
2005-04-28 10:29:14 51°26.046 3°7.789 10.0423 3.340418 30.017517 14.017178
2005-04-28 10:30:12 51°26.199 3°7.973 10.0178 3.341999 30.056746 14.185725
2005-04-28 10:31:14 51°26.327 3°8.142 9.9955 3.344316 30.091277 14.4554
2005-04-28 10:32:13 51°26.39 3°8.215 10.0259 3.350425 30.16704 13.444118
2005-04-28 10:33:12 51°26.421 3°8.249 10.0486 3.349266 30.122451 12.062033
2005-04-28 10:34:13 51°26.426 3°8.271 10.0679 3.351267 30.135663 11.286717
2005-04-28 10:35:13 51°26.421 3°8.288 10.073 3.354743 30.158848 10.781076
2005-04-28 10:36:13 51°26.409 3°8.301 10.0738 3.354321 30.147916 9.938341
2005-04-28 10:37:14 51°26.394 3°8.309 10.0732 3.355585 30.16118 10.208016
2005-04-28 10:38:13 51°26.381 3°8.335 10.0721 3.354111 30.146491 11.017042
2005-04-28 10:39:14 51°26.436 3°8.353 10.0674 3.357587 30.189206 11.11817
2005-04-28 10:40:13 51°26.572 3°8.207 10.0851 3.353795 30.139306 10.646238
2005-04-28 10:41:14 51°26.653 3°7.883 10.0583 3.359061 30.183675 9.837212
2005-04-28 10:42:13 51°26.732 3°7.55 10.0057 3.367066 30.301969 12.331708
2005-04-28 10:43:14 51°26.83 3°7.224 9.9631 3.364223 30.311548 12.904768
2005-04-28 10:44:14 51°26.928 3°6.903 9.9409 3.362117 30.321056 13.646375
2005-04-28 10:45:13 51°27.033 3°6.593 9.9277 3.36317 30.354715 13.140734
2005-04-28 10:46:14 51°27.141 3°6.278 10.0114 3.369595 30.413546 12.129452
2005-04-28 10:47:14 51°27.251 3°5.967 10.0585 3.367067 30.3101 10.814785
2005-04-28 10:48:14 51°27.369 3°5.664 10.0812 3.36496 30.266749 10.814785
2005-04-28 10:49:13 51°27.487 3°5.363 10.0681 3.375598 30.357237 9.702375
2005-04-28 10:50:14 51°27.607 3°5.056 10.0788 3.375703 30.370494 9.736084
2005-04-28 10:51:14 51°27.727 3°4.752 10.0621 3.370015 30.29212 10.005759
2005-04-28 10:52:13 51°27.846 3°4.444 10.0373 3.367066 30.287752 10.781076
2005-04-28 10:53:14 51°27.967 3°4.131 10.0398 3.370753 30.339426 10.646238
2005-04-28 10:54:14 51°28.091 3°3.824 10.0062 3.373913 30.377067 10.005759
2005-04-28 10:55:14 51°28.198 3°3.554 9.9746 3.384446 30.504732 9.803503
2005-04-28 10:56:14 51°28.211 3°3.41 9.986 3.381287 30.500461 8.85964
2005-04-28 10:57:14 51°28.203 3°3.41 9.9771 3.386975 30.545035 8.185452
2005-04-28 10:58:13 51°28.191 3°3.402 9.9786 3.389081 30.572947 9.297862
2005-04-28 10:59:13 51°28.178 3°3.388 9.9793 3.384025 30.52033 9.230443
2005-04-28 11:00:14 51°28.164 3°3.367 9.9888 3.385921 30.53587 7.915777
2005-04-28 11:01:13 51°28.151 3°3.342 9.9918 3.384131 30.513183 8.657383
2005-04-28 11:02:13 51°28.138 3°3.314 9.9928 3.390661 30.579847 8.82593
2005-04-28 11:03:13 51°28.127 3°3.285 9.9994 3.390345 30.57258 9.39899
2005-04-28 11:04:13 51°28.119 3°3.227 10.0128 3.391293 30.577267 8.589965
2005-04-28 11:05:13 51°28.132 3°2.969 10.015 3.392978 30.584532 8.488836
2005-04-28 11:06:13 51°28.114 3°2.582 9.9744 3.391398 30.572845 8.151742
2005-04-28 11:07:14 51°28.074 3°2.184 9.9514 3.388134 30.578533 9.264153
2005-04-28 11:08:13 51°28.029 3°1.791 9.9331 3.387607 30.582858 9.634956
2005-04-28 11:09:14 51°27.976 3°1.392 9.907 3.388871 30.620225 9.264153
2005-04-28 11:10:13 51°27.927 3°0.999 9.906 3.391821 30.662848 9.567537
2005-04-28 11:11:14 51°27.869 3°0.6 9.8269 3.396666 30.733504 9.331571
2005-04-28 11:12:13 51°27.804 3°0.21 9.8071 3.402671 30.849214 10.005759
2005-04-28 11:13:13 51°27.738 2°59.818 9.9026 3.404251 30.829703 9.028187
2005-04-28 11:14:13 51°27.673 2°59.425 9.9367 3.403724 30.777359 8.85964
2005-04-28 11:15:13 51°27.61 2°59.033 9.9131 3.404987 30.770005 8.421418
2005-04-28 11:16:14 51°27.55 2°58.638 9.8772 3.409728 30.84727 9.904631
2005-04-28 11:17:14 51°27.49 2°58.245 9.836 3.412678 30.902543 9.028187
2005-04-28 11:18:14 51°27.431 2°57.851 9.7931 3.415101 30.96307 9.938341
2005-04-28 11:19:14 51°27.372 2°57.455 9.8144 3.415628 30.978128 9.365281
2005-04-28 11:20:13 51°27.31 2°57.061 9.839 3.410361 30.91471 9.803503
2005-04-28 11:21:13 51°27.249 2°56.661 9.7865 3.411309 30.918675 9.466409
2005-04-28 11:22:14 51°27.187 2°56.257 9.7653 3.415207 31.005305 9.837212
2005-04-28 11:23:13 51°27.128 2°55.86 9.7488 3.421422 31.088222 9.668665
2005-04-28 11:24:12 51°27.071 2°55.468 9.7425 3.42395 31.116514 10.241725
2005-04-28 11:25:14 51°27.012 2°55.06 9.7653 3.423107 31.113633 9.870922
2005-04-28 11:26:13 51°26.958 2°54.665 9.7686 3.424476 31.101477 9.4327
2005-04-28 11:27:14 51°26.901 2°54.265 9.8204 3.425425 31.118746 9.129315
2005-04-28 11:28:13 51°26.844 2°53.876 9.8582 3.430269 31.110766 8.691093
2005-04-28 11:29:13 51°26.788 2°53.48 9.8946 3.431638 31.088866 8.82593
2005-04-28 11:30:13 51°26.735 2°53.091 9.919 3.435852 31.109546 7.915777
2005-04-28 11:31:14 51°26.685 2°52.7 9.9416 3.438169 31.109074 8.050614
2005-04-28 11:32:14 51°26.635 2°52.313 9.9217 3.440276 31.124638 8.353999
2005-04-28 11:33:14 51°26.587 2°51.925 9.9012 3.439222 31.123141 8.724802
2005-04-28 11:34:13 51°26.538 2°51.54 9.8748 3.443963 31.197348 9.97205
2005-04-28 11:35:13 51°26.482 2°51.155 9.8825 3.447756 31.255129 9.601247
2005-04-28 11:36:13 51°26.426 2°50.771 9.8697 3.453444 31.31095 8.589965
2005-04-28 11:37:13 51°26.365 2°50.385 9.7969 3.462188 31.412357 8.927059
2005-04-28 11:38:13 51°26.296 2°50 9.7468 3.478096 31.637358 9.095606
2005-04-28 11:39:13 51°26.227 2°49.614 9.7447 3.487788 31.771064 8.185452
2005-04-28 11:40:14 51°26.157 2°49.226 9.7338 3.490106 31.790917 8.185452
2005-04-28 11:41:14 51°26.091 2°48.856 9.7329 3.492634 31.827984 7.848358
2005-04-28 11:42:13 51°26.04 2°48.654 9.7454 3.493267 31.837974 7.949486
2005-04-28 11:43:14 51°26.027 2°48.549 9.7361 3.493899 31.830713 7.74723
2005-04-28 11:44:14 51°26.024 2°48.528 9.7425 3.494109 31.82566 7.511264
2005-04-28 11:45:14 51°26.018 2°48.51 9.7512 3.495584 31.842733 9.297862
2005-04-28 11:46:13 51°26.011 2°48.486 9.7609 3.495057 31.828785 8.893349
2005-04-28 11:47:14 51°26.006 2°48.458 9.7682 3.495057 31.823759 8.893349
2005-04-28 11:48:13 51°26.002 2°48.427 9.7726 3.495584 31.820471 8.85964
2005-04-28 11:49:14 51°25.999 2°48.394 9.7762 3.495268 31.817994 8.927059
2005-04-28 11:50:13 51°26.006 2°48.338 9.7808 3.4959 31.815773 9.500118
2005-04-28 11:51:14 51°26.054 2°48.212 9.7205 3.501589 31.891244 9.466409
2005-04-28 11:52:13 51°26.113 2°47.92 9.6933 3.506646 31.989307 9.4327
2005-04-28 11:53:14 51°26.035 2°47.562 9.6439 3.517077 32.129851 8.28658
2005-04-28 11:54:14 51°25.909 2°47.23 9.5999 3.520448 32.181538 7.814648
2005-04-28 11:55:14 51°25.781 2°46.9 9.5571 3.525927 32.2781 9.028187
2005-04-28 11:56:14 51°25.654 2°46.567 9.568 3.530879 32.369566 8.691093
2005-04-28 11:57:14 51°25.528 2°46.233 9.5754 3.531406 32.364643 9.365281
2005-04-28 11:58:14 51°25.406 2°45.897 9.5868 3.532986 32.371182 8.960768
2005-04-28 11:59:14 51°25.276 2°45.569 9.7019 3.524662 32.230899 9.264153
2005-04-28 12:00:14 51°25.144 2°45.241 9.7504 3.51518 32.053321 8.320289
2005-04-28 12:01:14 51°25.014 2°44.911 9.7479 3.516444 32.050204 7.949486
2005-04-28 12:02:12 51°24.888 2°44.59 9.7639 3.520131 32.09188 8.893349
2005-04-28 12:03:14 51°24.757 2°44.251 9.738 3.519815 32.081438 9.466409
2005-04-28 12:04:14 51°24.631 2°43.919 9.7317 3.520974 32.106937 9.634956
2005-04-28 12:05:13 51°24.507 2°43.592 9.7409 3.519288 32.099286 9.39899
2005-04-28 12:06:14 51°24.378 2°43.256 9.7437 3.516128 32.051344 9.297862
2005-04-28 12:07:14 51°24.252 2°42.925 9.7483 3.517497 32.071726 8.657383
2005-04-28 12:08:14 51°24.126 2°42.594 9.7585 3.517603 32.061935 9.297862
2005-04-28 12:09:13 51°24.001 2°42.27 9.7417 3.521711 32.107158 8.387708
2005-04-28 12:10:14 51°23.87 2°41.946 9.5439 3.539306 32.318227 7.882067
2005-04-28 12:11:14 51°23.743 2°41.619 9.6046 3.574708 32.803722 6.938204
2005-04-28 12:12:14 51°23.616 2°41.291 9.6152 3.571863 32.742003 7.073042
2005-04-28 12:13:14 51°23.488 2°40.964 9.6079 3.566806 32.675663 7.207879
2005-04-28 12:14:14 51°23.361 2°40.638 9.5965 3.568176 32.7074 7.275298
2005-04-28 12:15:14 51°23.234 2°40.312 9.5883 3.570915 32.741994 7.646101
2005-04-28 12:16:14 51°23.112 2°39.983 9.5773 3.573128 32.771235 6.870785
2005-04-28 12:17:14 51°22.991 2°39.653 9.5699 3.57808 32.831408 8.118033
2005-04-28 12:18:14 51°22.871 2°39.323 9.573 3.581662 32.876159 7.544973
2005-04-28 12:19:14 51°22.747 2°39.001 9.5404 3.585561 32.912206 6.634819
2005-04-28 12:20:13 51°22.626 2°38.684 9.4903 3.601893 33.12932 7.679811
2005-04-28 12:21:14 51°22.501 2°38.361 9.4803 3.605897 33.199722 7.814648
2005-04-28 12:22:14 51°22.377 2°38.043 9.4774 3.606529 33.212244 7.241589
2005-04-28 12:23:14 51°22.256 2°37.724 9.4878 3.607583 33.217741 7.443845
2005-04-28 12:24:14 51°22.143 2°37.399 9.4901 3.608215 33.222702 7.342717
2005-04-28 12:25:12 51°22.033 2°37.082 9.4973 3.609585 33.228408 6.971913
2005-04-28 12:26:14 51°21.917 2°36.75 9.5046 3.610638 33.230876 6.634819
2005-04-28 12:27:14 51°21.805 2°36.424 9.5103 3.611271 33.23886 6.02805
2005-04-28 12:28:13 51°21.693 2°36.102 9.5084 3.612956 33.247796 6.769657
2005-04-28 12:29:14 51°21.585 2°35.771 9.5061 3.613273 33.256327 7.241589
2005-04-28 12:30:13 51°21.482 2°35.448 9.5179 3.614432 33.263651 6.365144
2005-04-28 12:31:14 51°21.375 2°35.116 9.5353 3.616644 33.27646 6.129178
2005-04-28 12:32:14 51°21.27 2°34.789 9.5451 3.618014 33.27837 5.960631
2005-04-28 12:33:14 51°21.162 2°34.461 9.5507 3.619384 33.281036 6.499982
2005-04-28 12:34:14 51°21.061 2°34.128 9.5956 3.620016 33.282208 5.724665
2005-04-28 12:35:14 51°20.958 2°33.793 9.6377 3.618961 33.214847 6.196597
2005-04-28 12:36:14 51°20.859 2°33.455 9.6871 3.616853 33.160255 6.297725
2005-04-28 12:37:14 51°20.781 2°33.102 9.6982 3.614008 33.089285 6.870785
2005-04-28 12:38:14 51°20.704 2°32.748 9.7122 3.61169 33.061944 6.533691
2005-04-28 12:39:14 51°20.626 2°32.394 9.7323 3.610004 33.024621 6.095469
2005-04-28 12:40:14 51°20.548 2°32.042 9.7507 3.611163 33.024471 6.971913
2005-04-28 12:41:14 51°20.471 2°31.691 9.7386 3.611373 33.013192 7.14046
2005-04-28 12:42:14 51°20.394 2°31.344 9.7357 3.612322 33.038498 6.837076
2005-04-28 12:43:14 51°20.304 2°31.01 9.7846 3.613059 33.034806 6.735947
2005-04-28 12:44:14 51°20.207 2°30.685 9.784 3.615166 33.025658 6.398853
2005-04-28 12:45:14 51°20.121 2°30.401 9.7852 3.619802 33.066049 6.466272
2005-04-28 12:46:14 51°20.071 2°30.243 9.7885 3.625176 33.119154 6.162888
2005-04-28 12:47:14 51°20.043 2°30.137 9.7923 3.62918 33.152366 5.522409
2005-04-28 12:48:14 51°20.026 2°30.082 9.7861 3.634132 33.210178 5.45499
2005-04-28 12:49:14 51°20.024 2°30.077 9.7589 3.640876 33.283993 5.792084
2005-04-28 12:50:14 51°20.025 2°30.073 9.7216 3.643932 33.343657 5.657247
2005-04-28 12:51:14 51°20.028 2°30.073 9.7014 3.645829 33.388601 6.398853
2005-04-28 12:52:14 51°20.03 2°30.077 9.7007 3.646357 33.415116 5.893212
2005-04-28 12:53:14 51°20.026 2°30.073 9.6969 3.6472 33.42371 6.533691
2005-04-28 12:54:14 51°19.977 2°30.089 9.6962 3.646989 33.423074 6.162888
2005-04-28 12:55:14 51°19.856 2°30.194 9.6918 3.647726 33.429838 6.230306
2005-04-28 12:56:14 51°19.689 2°30.415 9.7995 3.643195 33.36855 5.724665
2005-04-28 12:57:14 51°19.543 2°30.696 9.7779 3.636451 33.237492 5.792084
2005-04-28 12:58:14 51°19.401 2°30.97 9.7817 3.629602 33.177596 6.264016
2005-04-28 12:59:14 51°19.286 2°31.269 9.7441 3.62918 33.156104 6.803366
2005-04-28 13:00:14 51°19.176 2°31.572 9.8159 3.630023 33.190119 6.5674
2005-04-28 13:01:14 51°19.064 2°31.874 9.7931 3.633816 33.183017 6.162888
2005-04-28 13:02:14 51°18.951 2°32.18 9.7973 3.636767 33.230961 6.331435
2005-04-28 13:03:14 51°18.85 2°32.498 9.7955 3.635924 33.218648 6.297725
2005-04-28 13:04:14 51°18.76 2°32.829 9.8111 3.639822 33.254524 6.162888
2005-04-28 13:05:14 51°18.671 2°33.164 9.8022 3.643616 33.284826 6.264016
2005-04-28 13:06:14 51°18.58 2°33.499 9.7701 3.642983 33.291908 6.129178
2005-04-28 13:07:14 51°18.487 2°33.837 9.7705 3.640876 33.298266 5.623537
2005-04-28 13:08:14 51°18.395 2°34.165 9.8697 3.658789 33.415732 5.758375
2005-04-28 13:09:14 51°18.311 2°34.499 9.8575 3.651623 33.328667 7.17417
2005-04-28 13:10:14 51°18.232 2°34.84 9.8771 3.655101 33.35422 6.837076
2005-04-28 13:11:14 51°18.151 2°35.184 9.8661 3.660264 33.401387 7.376426
2005-04-28 13:12:14 51°18.052 2°35.519 9.8763 3.66764 33.473282 7.073042
2005-04-28 13:13:14 51°17.924 2°35.829 9.8434 3.672698 33.539749 7.106751
2005-04-28 13:14:14 51°17.76 2°36.088 9.8821 3.670907 33.51023 6.702238
2005-04-28 13:15:14 51°17.571 2°36.29 9.9315 3.667324 33.464801 7.578683
2005-04-28 13:16:14 51°17.366 2°36.415 10.048 3.664267 33.347523 7.14046
2005-04-28 13:17:14 51°17.164 2°36.531 10.0862 3.652148 33.126055 8.118033
2005-04-28 13:18:14 51°16.963 2°36.649 10.0301 3.649935 33.111869 8.893349
2005-04-28 13:19:14 51°16.784 2°36.746 10.0551 3.657944 33.231342 7.646101
2005-04-28 13:20:14 51°16.695 2°36.763 10.0359 3.669851 33.33829 7.578683
2005-04-28 13:21:14 51°16.657 2°36.784 10.0279 3.6767 33.414268 7.275298
2005-04-28 13:22:14 51°16.664 2°36.802 10.0162 3.680916 33.470388 6.870785
2005-04-28 13:23:14 51°16.677 2°36.819 9.9967 3.68081 33.482069 8.185452
2005-04-28 13:24:14 51°16.695 2°36.836 9.9893 3.679862 33.485223 8.320289
2005-04-28 13:25:14 51°16.714 2°36.855 9.9775 3.679546 33.487276 8.455127
2005-04-28 13:26:14 51°16.734 2°36.873 9.9702 3.678809 33.495575 9.4327
2005-04-28 13:27:14 51°16.755 2°36.893 9.9859 3.678809 33.499332 8.792221
2005-04-28 13:28:14 51°16.776 2°36.912 10.0064 3.680073 33.496368 7.848358
2005-04-28 13:29:14 51°16.797 2°36.931 10.0495 3.682286 33.490252 8.252871
2005-04-28 13:30:14 51°16.82 2°36.95 10.0706 3.68513 33.486799 8.252871
2005-04-28 13:31:14 51°16.842 2°36.97 10.078 3.686289 33.482789 7.949486
2005-04-28 13:32:14 51°16.864 2°36.986 10.0899 3.687238 33.479648 7.14046
2005-04-28 13:33:14 51°16.865 2°36.944 10.0439 3.686816 33.478382 8.185452
2005-04-28 13:34:14 51°16.732 2°36.911 10.0205 3.68218 33.476437 7.814648
2005-04-28 13:35:14 51°16.535 2°36.994 10.007 3.684288 33.510518 7.848358
2005-04-28 13:36:14 51°16.343 2°37.152 10.0029 3.693034 33.599827 7.612392
2005-04-28 13:37:14 51°16.145 2°37.279 9.9805 3.700727 33.687555 6.230306
2005-04-28 13:38:14 51°15.942 2°37.404 9.8905 3.704521 33.771416 6.803366
2005-04-28 13:39:14 51°15.737 2°37.531 9.9117 3.704733 33.825186 6.196597
2005-04-28 13:40:14 51°15.537 2°37.685 10.0285 3.708631 33.826038 5.926922
2005-04-28 13:41:14 51°15.336 2°37.845 10.0263 3.715796 33.819846 5.792084
2005-04-28 13:42:14 51°15.138 2°38.016 10.0674 3.718115 33.83349 5.926922
2005-04-28 13:43:14 51°14.947 2°38.212 10.0508 3.72254 33.854842 5.792084
2005-04-28 13:44:14 51°14.765 2°38.423 10.0716 3.725175 33.886071 6.196597
2005-04-28 13:45:14 51°14.586 2°38.635 10.1029 3.719695 33.81317 5.926922
2005-04-28 13:46:14 51°14.399 2°38.814 10.136 3.726123 33.834362 5.421281
2005-04-28 13:47:14 51°14.197 2°38.923 10.1366 3.728862 33.840153 5.657247
2005-04-28 13:48:14 51°13.994 2°38.892 10.0902 3.722961 33.808438 5.825794
2005-04-28 13:49:14 51°13.806 2°38.778 10.0966 3.716428 33.772555 5.825794
2005-04-28 13:50:14 51°13.617 2°38.659 10.1247 3.723488 33.830389 6.061759
2005-04-28 13:51:14 51°13.432 2°38.527 10.1679 3.732656 33.891352 5.758375
2005-04-28 13:52:14 51°13.246 2°38.395 10.2093 3.733499 33.858307 6.061759
2005-04-28 13:53:14 51°13.061 2°38.265 10.3093 3.740559 33.888074 5.387571
2005-04-28 13:54:14 51°12.879 2°38.129 10.4049 3.748356 33.853735 5.387571
2005-04-28 13:55:14 51°12.705 2°37.973 10.4318 3.753414 33.84757 4.713383
2005-04-28 13:56:14 51°12.529 2°37.819 10.4447 3.764479 33.935448 4.612255
2005-04-28 13:57:14 51°12.355 2°37.67 10.4395 3.768063 33.960913 5.084187
2005-04-28 13:58:13 51°12.181 2°37.521 10.4198 3.768063 33.969928 5.050477
2005-04-28 13:59:13 51°12.005 2°37.37 10.3845 3.76722 33.984769 5.387571
2005-04-28 14:00:14 51°11.827 2°37.217 10.3549 3.759422 33.93872 5.792084
2005-04-28 14:01:14 51°11.651 2°37.064 10.3282 3.761319 33.985667 5.421281
2005-04-28 14:02:13 51°11.477 2°36.913 10.3144 3.760265 33.992404 5.050477
2005-04-28 14:03:13 51°11.302 2°36.76 10.3037 3.754153 33.942162 5.117896
2005-04-28 14:04:13 51°11.127 2°36.61 10.2675 3.750043 33.915837 5.320153
2005-04-28 14:05:14 51°10.951 2°36.459 10.2255 3.746355 33.922395 4.207742
2005-04-28 14:06:14 51°10.777 2°36.308 10.2224 3.744353 33.935422 4.679674
2005-04-28 14:07:14 51°10.602 2°36.157 10.2384 3.751835 33.996575 5.151606
2005-04-28 14:08:14 51°10.431 2°36.01 10.2303 3.754997 34.020156 4.780802
2005-04-28 14:09:14 51°10.252 2°35.886 10.2418 3.752046 33.992649 5.45499
2005-04-28 14:10:14 51°10.056 2°35.868 10.2835 3.752994 33.988604 5.286443
2005-04-28 14:11:14 51°9.889 2°36.088 10.4179 3.757104 33.956801 4.848221
2005-04-28 14:12:14 51°9.843 2°36.465 10.3814 3.754995 33.851457 4.645965
2005-04-28 14:13:14 51°9.876 2°36.864 10.3265 3.756998 33.92337 4.780802
2005-04-28 14:14:13 51°9.95 2°37.247 10.3284 3.751097 33.905365 5.151606
2005-04-28 14:15:14 51°10.043 2°37.628 10.3081 3.755734 33.943762 5.219024
2005-04-28 14:16:14 51°10.131 2°38.008 10.3169 3.752151 33.921246 5.522409
2005-04-28 14:17:14 51°10.219 2°38.391 10.3164 3.753626 33.933842 5.556118
2005-04-28 14:18:14 51°10.308 2°38.774 10.3085 3.749621 33.897284 4.983059
2005-04-28 14:19:14 51°10.395 2°39.163 10.3281 3.751097 33.910634 5.556118
2005-04-28 14:20:14 51°10.482 2°39.547 10.3584 3.752572 33.90667 6.095469
2005-04-28 14:21:13 51°10.567 2°39.932 10.3802 3.754468 33.897182 5.117896
2005-04-28 14:22:14 51°10.658 2°40.322 10.4175 3.754152 33.869977 5.758375
2005-04-28 14:23:14 51°10.759 2°40.701 10.4442 3.755205 33.846832 5.623537
2005-04-28 14:24:14 51°10.853 2°41.083 10.4605 3.763109 33.908938 5.45499
2005-04-28 14:25:14 51°10.944 2°41.467 10.4641 3.762793 33.893773 5.421281
2005-04-28 14:26:12 51°11.026 2°41.811 10.4672 3.762582 33.886415 4.949349
2005-04-28 14:27:14 51°11.088 2°42.019 10.4777 3.762477 33.882363 6.668529
2005-04-28 14:28:14 51°11.111 2°42.07 10.4888 3.763214 33.877036 5.556118
2005-04-28 14:29:14 51°11.121 2°42.094 10.4919 3.763846 33.878139 6.499982
2005-04-28 14:30:14 51°11.135 2°42.126 10.4886 3.764163 33.881309 7.14046
2005-04-28 14:31:14 51°11.152 2°42.162 10.4988 3.764268 33.877876 6.60111
2005-04-28 14:32:14 51°11.171 2°42.202 10.4958 3.764479 33.876997 6.904494
2005-04-28 14:33:13 51°11.188 2°42.239 10.4989 3.764373 33.874444 6.466272
2005-04-28 14:34:14 51°11.205 2°42.271 10.4975 3.764584 33.876557 6.5674
2005-04-28 14:35:14 51°11.219 2°42.299 10.4938 3.764795 33.877174 5.556118
2005-04-28 14:36:13 51°11.23 2°42.325 10.4923 3.764268 33.879372 6.061759
2005-04-28 14:37:14 51°11.242 2°42.355 10.4877 3.764584 33.884038 5.252734
2005-04-28 14:38:14 51°11.252 2°42.384 10.4832 3.763741 33.879327 6.129178
2005-04-28 14:39:14 51°11.254 2°42.408 10.4809 3.764373 33.886415 6.803366
2005-04-28 14:40:14 51°11.256 2°42.431 10.485 3.76469 33.884347 6.365144
2005-04-28 14:41:13 51°11.264 2°42.462 10.4843 3.763847 33.881132 5.4887
2005-04-28 14:42:13 51°11.271 2°42.49 10.4844 3.763846 33.880383 6.196597
2005-04-28 14:43:14 51°11.276 2°42.517 10.4783 3.764268 33.885359 6.230306
2005-04-28 14:44:14 51°11.286 2°42.547 10.4796 3.764057 33.884742 6.061759
2005-04-28 14:45:14 51°11.301 2°42.581 10.4828 3.764057 33.88549 6.533691
2005-04-28 14:46:14 51°11.319 2°42.62 10.486 3.764268 33.882365 6.297725
2005-04-28 14:47:14 51°11.338 2°42.66 10.485 3.764479 33.88373 6.297725
2005-04-28 14:48:14 51°11.357 2°42.703 10.4899 3.764479 33.88373 6.5674
2005-04-28 14:49:13 51°11.377 2°42.746 10.487 3.765111 33.887076 6.735947
2005-04-28 14:50:14 51°11.398 2°42.79 10.4914 3.765322 33.886945 6.769657
2005-04-28 14:51:14 51°11.457 2°42.898 10.484 3.765427 33.888749 6.02805
2005-04-28 14:52:14 51°11.55 2°42.827 10.4779 3.76469 33.891083 5.556118
2005-04-28 14:53:13 51°11.495 2°42.671 10.4661 3.76469 33.898571 4.848221
2005-04-28 14:54:14 51°11.387 2°42.514 10.4569 3.764901 33.909675 5.657247
2005-04-28 14:55:14 51°11.274 2°42.36 10.4571 3.763425 33.898619 4.747093
2005-04-28 14:56:14 51°11.203 2°42.237 10.4564 3.763531 33.901924 5.387571
2005-04-28 14:57:14 51°11.153 2°42.155 10.4523 3.763636 33.903731 5.556118
2005-04-28 14:58:14 51°11.127 2°42.146 10.4489 3.763636 33.90598 5.320153
2005-04-28 14:59:14 51°11.131 2°42.156 10.4435 3.763636 33.911228 5.4887
2005-04-28 15:00:14 51°11.14 2°42.156 10.4466 3.763531 33.913169 5.421281
2005-04-28 15:01:14 51°11.141 2°42.15 10.4463 3.764058 33.916209 5.387571
2005-04-28 15:02:14 51°11.082 2°42.164 10.4397 3.763742 33.919035 5.151606
2005-04-28 15:03:14 51°11.025 2°42.395 10.4539 3.763847 33.919343 5.657247
2005-04-28 15:04:14 51°11.055 2°42.781 10.4799 3.764163 33.90677 5.421281
2005-04-28 15:05:14 51°11.106 2°43.172 10.5024 3.764163 33.878316 6.129178
2005-04-28 15:06:14 51°11.168 2°43.562 10.5093 3.763635 33.858827 6.061759
2005-04-28 15:07:14 51°11.231 2°43.951 10.5106 3.762055 33.840746 6.331435
2005-04-28 15:08:14 51°11.292 2°44.34 10.5311 3.761211 33.824834 6.735947
2005-04-28 15:09:14 51°11.353 2°44.733 10.5557 3.76079 33.801221 6.331435
2005-04-28 15:10:14 51°11.431 2°45.115 10.579 3.761105 33.779806 6.870785
2005-04-28 15:11:14 51°11.51 2°45.5 10.602 3.761211 33.759291 6.702238
2005-04-28 15:12:14 51°11.59 2°45.884 10.6185 3.761 33.740842 7.073042
2005-04-28 15:13:14 51°11.68 2°46.267 10.6776 3.759418 33.702059 7.814648
2005-04-28 15:14:14 51°11.785 2°46.64 10.6707 3.758575 33.647039 6.971913
2005-04-28 15:15:14 51°11.895 2°47.007 10.6743 3.758891 33.659797 8.185452
2005-04-28 15:16:14 51°12.014 2°47.367 10.6883 3.757837 33.642638 7.544973
2005-04-28 15:17:14 51°12.131 2°47.729 10.7022 3.75731 33.621884 8.85964
2005-04-28 15:18:14 51°12.251 2°48.092 10.712 3.756783 33.60852 7.848358
2005-04-28 15:19:14 51°12.369 2°48.455 10.7117 3.756993 33.598828 8.421418
2005-04-28 15:20:14 51°12.494 2°48.811 10.7146 3.75752 33.608498 8.28658
2005-04-28 15:21:14 51°12.619 2°49.169 10.7222 3.755834 33.587282 8.691093
2005-04-28 15:22:14 51°12.744 2°49.528 10.7243 3.755834 33.581391 7.679811
2005-04-28 15:23:14 51°12.873 2°49.883 10.7219 3.756045 33.58349 8.893349
2005-04-28 15:24:14 51°13.005 2°50.236 10.7165 3.755307 33.578353 7.949486
2005-04-28 15:25:14 51°13.135 2°50.59 10.7238 3.752673 33.551384 9.129315
2005-04-28 15:26:14 51°13.267 2°50.942 10.7373 3.749827 33.517177 8.488836
2005-04-28 15:27:14 51°13.4 2°51.292 10.7524 3.74793 33.484352 9.331571
2005-04-28 15:28:14 51°13.53 2°51.643 10.7618 3.745295 33.445687 9.500118
2005-04-28 15:29:14 51°13.662 2°51.994 10.7754 3.742449 33.407885 10.477691
2005-04-28 15:30:14 51°13.795 2°52.345 10.7863 3.738234 33.353578 9.97205
2005-04-28 15:31:14 51°13.926 2°52.695 10.7967 3.733808 33.301598 11.151879
2005-04-28 15:32:14 51°14.061 2°53.048 10.8124 3.732332 33.272392 10.005759
2005-04-28 15:33:14 51°14.189 2°53.393 10.8109 3.726641 33.209388 10.781076
2005-04-28 15:34:14 51°14.322 2°53.743 10.8277 3.720318 33.1445 11.724939
2005-04-28 15:35:14 51°14.416 2°54.097 10.8232 3.714733 33.077553 11.522683
2005-04-28 15:36:14 51°14.45 2°54.456 10.8086 3.701139 32.947905 11.859777
2005-04-28 15:37:13 51°14.431 2°54.79 10.8079 3.684384 32.788431 12.567674
2005-04-28 15:38:14 51°14.355 2°55.07 10.8904 3.687545 32.796083 14.050888
2005-04-28 15:39:14 51°14.253 2°55.278 11.1295 3.639177 32.241976 14.927332
2005-04-28 15:40:14 51°14.149 2°55.415 11.2036 3.515795 30.82867 17.455537
2005-04-28 15:41:14 51°14.036 2°55.498 11.1389 3.467124 30.344935 18.500529
2005-04-28 15:42:14 51°13.915 2°55.583 11.349 3.379061 29.476262 18.264563
2005-04-28 15:43:14 51°13.792 2°55.668 11.1749 3.277108 28.423674 18.163435
2005-04-28 15:44:13 51°13.708 2°55.778 11.2685 3.255415 28.297653 17.927469
2005-04-28 15:45:14 51°13.658 2°55.887 11.1527 3.16159 27.346377 17.051024
2005-04-28 15:46:14 51°13.624 2°55.988 11.0422 3.230037 28.11371 16.949896
2005-04-28 15:47:14 51°13.606 2°56.076 10.9438 3.259524 28.465522 16.410546
2005-04-28 15:48:14 51°13.599 2°56.105 10.8802 3.296174 28.898981 15.972324